Time;durP1;ratioP1;P1;durP2;ratioP2;P2;SDS_P1;SDS_P2;PMS_P1;PMS_P2;Temp;Humidity;BMP_temperature;BMP_pressure;BME280_temperature;BME280_humidity;BME280_pressure;Samples;Min_cycle;Max_cycle;Signal;HPM_P1;HPM_P2
2022/10/18 00:00:52;;;;;;;459.50;255.60;;;16.30;99.90;;;;;;5004840;28;20314;-47
2022/10/18 00:03:18;;;;;;;391.90;217.30;;;16.30;99.90;;;;;;5006049;28;20286;-47
2022/10/18 00:05:45;;;;;;;494.17;277.33;;;16.20;99.90;;;;;;5007656;28;20386;-47
2022/10/18 00:08:11;;;;;;;480.13;271.03;;;16.30;99.90;;;;;;5025130;28;20289;-47
2022/10/18 00:10:36;;;;;;;440.63;240.40;;;15.50;99.90;;;;;;5015239;28;20409;-47
2022/10/18 00:13:02;;;;;;;413.57;234.20;;;16.30;99.90;;;;;;5022818;28;20212;-47
2022/10/18 00:15:27;;;;;;;404.43;224.03;;;16.30;99.90;;;;;;5017180;28;20599;-47
2022/10/18 00:17:53;;;;;;;494.37;276.60;;;16.30;99.90;;;;;;5004538;28;20264;-47
2022/10/18 00:20:18;;;;;;;348.88;196.23;;;16.30;99.90;;;;;;5017503;28;20180;-47
2022/10/18 00:22:44;;;;;;;507.97;286.37;;;16.20;99.90;;;;;;5002442;28;20186;-47
2022/10/18 00:25:10;;;;;;;444.73;243.17;;;16.20;99.90;;;;;;5015047;28;20633;-47
2022/10/18 00:27:36;;;;;;;461.80;259.47;;;16.20;99.90;;;;;;5021456;28;20295;-47
2022/10/18 00:30:02;;;;;;;353.13;200.70;;;16.10;99.90;;;;;;5020893;28;20220;-47
2022/10/18 00:32:28;;;;;;;396.37;226.47;;;16.10;99.90;;;;;;5019761;28;20176;-47
2022/10/18 00:34:54;;;;;;;487.63;277.47;;;15.80;99.90;;;;;;5001288;28;20541;-47
2022/10/18 00:37:19;;;;;;;395.17;219.97;;;16.00;99.90;;;;;;5004004;28;20310;-46
2022/10/18 00:39:45;;;;;;;449.47;253.43;;;16.00;99.90;;;;;;5002098;28;20381;-47
2022/10/18 00:42:16;;;;;;;368.23;206.47;;;15.90;99.90;;;;;;4999720;28;20221;-47
2022/10/18 00:44:42;;;;;;;360.23;195.03;;;15.90;99.90;;;;;;5020871;28;20299;-47
2022/10/18 00:47:10;;;;;;;391.10;211.50;;;15.90;99.90;;;;;;5021116;28;20254;-47
2022/10/18 00:49:41;;;;;;;446.90;253.90;;;15.80;99.90;;;;;;5000183;28;20324;-47
2022/10/18 00:52:14;;;;;;;449.43;256.57;;;15.80;99.90;;;;;;5021674;28;20644;-47
2022/10/18 00:54:41;;;;;;;373.03;213.87;;;15.80;99.90;;;;;;5010330;28;20300;-47
2022/10/18 00:57:07;;;;;;;471.43;267.50;;;15.80;99.90;;;;;;5005219;28;20220;-47
2022/10/18 00:59:34;;;;;;;359.37;200.83;;;15.80;99.90;;;;;;5014465;28;20225;-47
2022/10/18 01:02:00;;;;;;;446.40;252.77;;;15.80;99.90;;;;;;5015705;28;20208;-47
2022/10/18 01:04:26;;;;;;;438.27;250.77;;;15.80;99.90;;;;;;5022471;28;20267;-47
2022/10/18 01:07:00;;;;;;;387.53;218.50;;;15.80;99.90;;;;;;5020623;28;20243;-47
2022/10/18 01:09:46;;;;;;;464.57;262.63;;;15.80;99.90;;;;;;5012923;28;20557;-47
2022/10/18 01:12:12;;;;;;;410.77;233.43;;;15.80;99.90;;;;;;4998686;28;20306;-47
2022/10/18 01:15:02;;;;;;;438.63;242.70;;;15.80;99.90;;;;;;5006540;28;20346;-47
2022/10/18 01:17:46;;;;;;;481.63;266.63;;;15.80;99.90;;;;;;5008497;28;20202;-47
2022/10/18 01:20:34;;;;;;;368.23;204.13;;;15.90;99.90;;;;;;4998956;28;20184;-47
2022/10/18 01:23:12;;;;;;;442.47;244.33;;;15.80;99.90;;;;;;5020335;28;20346;-47
2022/10/18 01:25:49;;;;;;;385.80;211.97;;;15.80;99.90;;;;;;5020384;28;20295;-47
2022/10/18 01:28:14;;;;;;;442.13;250.80;;;15.80;99.90;;;;;;5013131;28;20641;-47
2022/10/18 01:31:00;;;;;;;422.53;239.00;;;15.80;99.90;;;;;;5022971;28;20200;-47
2022/10/18 01:33:38;;;;;;;410.63;225.23;;;15.90;99.90;;;;;;5015641;28;20343;-47
2022/10/18 01:36:22;;;;;;;447.97;253.33;;;15.80;99.90;;;;;;5022175;28;20212;-47
2022/10/18 01:38:51;;;;;;;384.10;205.97;;;15.80;99.90;;;;;;5005629;28;20217;-47
2022/10/18 01:41:20;;;;;;;361.70;194.30;;;15.70;99.90;;;;;;4996343;28;20545;-47
2022/10/18 01:43:49;;;;;;;389.37;197.40;;;15.80;99.90;;;;;;5020198;28;20231;-47
2022/10/18 01:46:19;;;;;;;412.67;217.50;;;15.70;99.90;;;;;;5023550;28;20216;-47
2022/10/18 01:48:45;;;;;;;505.83;270.57;;;15.80;99.90;;;;;;5008994;28;20227;-47
2022/10/18 01:51:11;;;;;;;490.13;254.13;;;15.80;99.90;;;;;;5003098;28;20205;-47
2022/10/18 01:53:36;;;;;;;435.30;223.70;;;15.70;99.90;;;;;;5002771;28;20295;-47
2022/10/18 01:56:21;;;;;;;390.07;196.10;;;15.70;99.90;;;;;;5001648;28;20218;-47
2022/10/18 01:59:02;;;;;;;545.93;285.17;;;15.70;99.90;;;;;;5021329;28;20692;-47
2022/10/18 02:01:33;;;;;;;436.17;231.10;;;15.00;99.90;;;;;;5024159;28;20254;-47
2022/10/18 02:04:25;;;;;;;401.70;206.77;;;15.70;99.90;;;;;;5016024;28;20215;-47
2022/10/18 02:06:57;;;;;;;472.03;250.67;;;15.70;99.90;;;;;;5008728;28;20223;-47
2022/10/18 02:09:38;;;;;;;389.93;203.83;;;15.70;99.90;;;;;;4996227;28;20306;-47
2022/10/18 02:12:05;;;;;;;488.20;258.60;;;15.60;99.90;;;;;;5012250;28;20251;-47
2022/10/18 02:14:31;;;;;;;421.53;227.07;;;15.60;99.90;;;;;;4999882;28;20301;-49
2022/10/18 02:17:00;;;;;;;421.13;229.37;;;15.60;99.90;;;;;;5014894;28;20265;-47
2022/10/18 02:19:32;;;;;;;455.10;239.63;;;15.60;99.90;;;;;;5002879;28;20279;-47
2022/10/18 02:21:58;;;;;;;443.50;236.33;;;14.80;99.90;;;;;;5009834;28;20696;-47
2022/10/18 02:24:34;;;;;;;471.40;261.20;;;15.50;99.90;;;;;;5019028;28;20341;-47
2022/10/18 02:27:00;;;;;;;419.73;218.43;;;15.50;99.90;;;;;;5015676;28;20232;-47
2022/10/18 02:29:25;;;;;;;481.07;261.87;;;15.80;99.90;;;;;;5017745;28;20316;-47
2022/10/18 02:32:00;;;;;;;382.73;204.80;;;15.50;99.90;;;;;;5022248;28;20220;-47
2022/10/18 02:34:34;;;;;;;543.07;295.83;;;15.50;99.90;;;;;;5018275;28;20619;-47
2022/10/18 02:37:00;;;;;;;345.97;187.80;;;15.50;99.90;;;;;;5026691;28;20282;-47
2022/10/18 02:39:29;;;;;;;416.77;219.73;;;15.50;99.90;;;;;;5022930;28;20219;-47
2022/10/18 02:41:56;;;;;;;327.30;170.30;;;15.50;99.90;;;;;;5012750;28;20212;-47
2022/10/18 02:44:22;;;;;;;535.70;292.13;;;15.50;99.90;;;;;;5019060;28;20260;-47
2022/10/18 02:46:48;;;;;;;463.27;245.07;;;15.50;99.90;;;;;;5025043;28;20208;-47
2022/10/18 02:49:14;;;;;;;401.13;214.23;;;15.50;99.90;;;;;;5008670;28;20768;-47
2022/10/18 02:51:39;;;;;;;493.87;265.53;;;15.50;99.90;;;;;;5015329;28;20571;-47
2022/10/18 02:54:07;;;;;;;335.57;173.60;;;15.40;99.90;;;;;;5022047;28;20741;-47
2022/10/18 02:56:33;;;;;;;420.40;218.17;;;15.50;99.90;;;;;;5024798;28;20653;-47
2022/10/18 02:58:59;;;;;;;376.43;196.73;;;;;;;;;;5042762;22;20219;-56
2022/10/18 03:01:24;;;;;;;540.07;272.13;;;15.50;99.90;;;;;;5031163;28;20219;-53
2022/10/18 03:03:50;;;;;;;568.23;289.53;;;15.50;99.90;;;;;;5031084;28;20459;-54
2022/10/18 03:06:15;;;;;;;558.43;291.27;;;15.60;99.90;;;;;;5014362;28;20293;-54
2022/10/18 03:08:41;;;;;;;485.57;250.57;;;15.60;99.90;;;;;;5020624;28;20200;-54
2022/10/18 03:11:06;;;;;;;369.47;189.60;;;15.60;99.90;;;;;;5014139;28;20195;-55
2022/10/18 03:13:32;;;;;;;552.80;287.80;;;15.60;99.90;;;;;;5009586;28;20239;-54
2022/10/18 03:15:59;;;;;;;446.07;226.83;;;15.70;99.90;;;;;;5011082;28;20617;-55
2022/10/18 03:18:25;;;;;;;428.53;219.70;;;15.60;99.90;;;;;;5016984;28;20911;-54
2022/10/18 03:20:50;;;;;;;477.60;237.53;;;15.60;99.90;;;;;;5017196;28;20270;-54
2022/10/18 03:23:16;;;;;;;417.80;213.73;;;15.50;99.90;;;;;;5011902;28;20189;-54
2022/10/18 03:25:41;;;;;;;496.20;253.97;;;15.50;99.90;;;;;;5012818;28;20420;-54
2022/10/18 03:28:07;;;;;;;443.70;226.50;;;15.50;99.90;;;;;;5008493;28;20254;-54
2022/10/18 03:30:32;;;;;;;580.80;300.73;;;15.50;99.90;;;;;;5012176;28;20737;-54
2022/10/18 03:32:58;;;;;;;523.67;262.70;;;15.50;99.90;;;;;;5008084;28;21048;-54
2022/10/18 03:35:24;;;;;;;588.07;305.97;;;15.50;99.90;;;;;;5005971;28;20656;-54
2022/10/18 03:37:49;;;;;;;351.93;174.83;;;15.50;99.90;;;;;;5015828;28;20640;-54
2022/10/18 03:40:15;;;;;;;379.67;192.57;;;15.50;99.90;;;;;;5015967;28;20354;-54
2022/10/18 03:42:41;;;;;;;431.20;213.27;;;;;;;;;;5010878;28;20216;-54
2022/10/18 03:45:07;;;;;;;394.60;204.17;;;15.50;99.90;;;;;;5010493;28;20696;-54
2022/10/18 03:47:33;;;;;;;542.23;274.23;;;;;;;;;;5017822;28;20696;-54
2022/10/18 03:49:58;;;;;;;446.23;230.93;;;15.40;99.90;;;;;;5010122;28;20180;-54
2022/10/18 03:52:24;;;;;;;399.23;202.20;;;15.50;99.90;;;;;;5007776;28;20239;-54
2022/10/18 03:54:49;;;;;;;362.23;191.97;;;15.60;99.90;;;;;;5011799;28;20566;-54
2022/10/18 03:57:15;;;;;;;475.70;248.10;;;15.50;99.90;;;;;;5002647;28;20755;-55
2022/10/18 03:59:41;;;;;;;576.23;298.27;;;;;;;;;;5008880;28;20213;-54
2022/10/18 04:02:06;;;;;;;496.00;258.03;;;15.50;99.90;;;;;;5006387;28;22812;-54
2022/10/18 04:04:32;;;;;;;489.00;247.03;;;15.60;99.90;;;;;;5007817;28;20213;-55
2022/10/18 04:06:57;;;;;;;416.97;214.67;;;15.50;99.90;;;;;;4998969;28;21549;-54
2022/10/18 04:09:23;;;;;;;415.17;212.53;;;15.60;99.90;;;;;;5008986;28;20220;-54
2022/10/18 04:11:49;;;;;;;397.60;210.40;;;15.60;99.90;;;;;;5004084;28;20991;-54
2022/10/18 04:14:15;;;;;;;447.03;225.43;;;15.60;99.90;;;;;;5012346;28;20573;-54
2022/10/18 04:16:40;;;;;;;528.57;277.17;;;15.60;99.90;;;;;;5014560;28;20200;-54
2022/10/18 04:19:06;;;;;;;437.70;220.80;;;15.60;99.90;;;;;;5004117;28;20783;-54
2022/10/18 04:21:32;;;;;;;497.77;243.40;;;;;;;;;;5001064;28;20258;-54
2022/10/18 04:23:58;;;;;;;509.53;253.87;;;;;;;;;;5012370;28;20460;-54
2022/10/18 04:26:23;;;;;;;481.07;243.40;;;15.80;99.90;;;;;;5002308;28;20247;-54
2022/10/18 04:28:49;;;;;;;484.53;240.83;;;15.80;99.90;;;;;;5011834;28;20819;-54
2022/10/18 04:31:15;;;;;;;517.47;255.43;;;15.90;99.90;;;;;;5011917;28;21882;-54
2022/10/18 04:33:40;;;;;;;362.67;182.83;;;15.80;99.90;;;;;;5014455;28;20213;-54
2022/10/18 04:36:06;;;;;;;497.30;251.37;;;;;;;;;;5012850;28;20216;-54
2022/10/18 04:38:32;;;;;;;454.80;227.53;;;15.90;99.90;;;;;;5019417;28;20220;-55
2022/10/18 04:40:57;;;;;;;477.30;232.67;;;15.80;99.90;;;;;;5013382;28;20183;-54
2022/10/18 04:43:23;;;;;;;486.87;247.93;;;15.90;99.90;;;;;;5007450;28;20230;-54
2022/10/18 04:45:50;;;;;;;527.93;264.97;;;;;;;;;;5009353;28;20337;-54
2022/10/18 04:48:18;;;;;;;565.13;287.63;;;15.90;99.90;;;;;;5015977;28;20210;-54
2022/10/18 04:50:47;;;;;;;512.93;252.73;;;15.90;99.90;;;;;;5015637;28;20644;-54
2022/10/18 04:53:13;;;;;;;385.83;190.60;;;15.60;99.90;;;;;;5011780;28;20264;-54
2022/10/18 04:55:39;;;;;;;424.63;210.13;;;15.90;99.90;;;;;;5009419;28;20553;-54
2022/10/18 04:58:04;;;;;;;515.27;259.33;;;16.00;99.90;;;;;;5009681;28;20465;-54
2022/10/18 05:00:30;;;;;;;501.30;258.10;;;15.90;99.90;;;;;;5011567;28;20220;-54
2022/10/18 05:02:56;;;;;;;490.07;242.47;;;15.90;99.90;;;;;;5009970;28;20212;-54
2022/10/18 05:05:22;;;;;;;437.50;222.97;;;15.80;99.90;;;;;;5016320;28;20217;-55
2022/10/18 05:07:47;;;;;;;378.90;189.87;;;15.80;99.90;;;;;;5018571;28;20268;-54
2022/10/18 05:10:13;;;;;;;398.83;201.83;;;15.90;99.90;;;;;;5017936;28;20425;-54
2022/10/18 05:12:39;;;;;;;466.97;236.77;;;15.80;99.90;;;;;;5012717;28;20615;-54
2022/10/18 05:15:05;;;;;;;518.83;265.17;;;15.80;99.90;;;;;;5013022;28;20236;-55
2022/10/18 05:17:30;;;;;;;388.17;193.53;;;15.80;99.90;;;;;;5011860;28;20181;-54
2022/10/18 05:19:56;;;;;;;522.60;265.20;;;;;;;;;;5017465;28;20584;-54
2022/10/18 05:22:22;;;;;;;399.43;201.97;;;15.20;99.90;;;;;;5017926;28;20280;-55
2022/10/18 05:24:48;;;;;;;409.57;207.93;;;;;;;;;;5015828;28;20324;-54
2022/10/18 05:27:13;;;;;;;405.37;201.43;;;15.70;99.90;;;;;;5009274;28;20754;-54
2022/10/18 05:29:38;;;;;;;360.33;187.07;;;15.80;99.90;;;;;;5013184;28;20308;-54
2022/10/18 05:32:04;;;;;;;511.77;267.83;;;15.80;99.90;;;;;;5009104;28;20188;-54
2022/10/18 05:34:33;;;;;;;403.40;211.27;;;;;;;;;;5015592;28;20216;-54
2022/10/18 05:36:59;;;;;;;481.77;241.77;;;15.80;99.90;;;;;;4995329;28;20225;-55
2022/10/18 05:39:25;;;;;;;481.90;262.33;;;15.60;99.90;;;;;;5008140;28;20224;-55
2022/10/18 05:41:50;;;;;;;511.23;267.10;;;15.80;99.90;;;;;;4985234;28;20216;-55
2022/10/18 05:44:16;;;;;;;513.83;265.87;;;;;;;;;;5009961;28;20216;-55
2022/10/18 05:46:42;;;;;;;540.07;285.67;;;15.70;99.90;;;;;;5009079;28;20311;-55
2022/10/18 05:49:12;;;;;;;419.77;220.73;;;15.70;99.90;;;;;;5030374;28;20330;-55
2022/10/18 05:51:38;;;;;;;422.53;217.30;;;16.00;99.90;;;;;;5006279;28;20208;-55
2022/10/18 05:54:04;;;;;;;529.90;269.77;;;;;;;;;;5012995;28;20660;-55
2022/10/18 05:56:29;;;;;;;387.20;200.00;;;15.70;99.90;;;;;;5009797;28;20629;-55
2022/10/18 05:58:55;;;;;;;476.33;236.73;;;15.80;99.90;;;;;;5014017;28;20595;-55
2022/10/18 06:01:20;;;;;;;535.20;275.53;;;15.70;99.90;;;;;;4988992;28;20234;-55
2022/10/18 06:03:46;;;;;;;397.07;201.00;;;15.70;99.90;;;;;;5011928;28;20612;-55
2022/10/18 06:06:13;;;;;;;430.70;218.67;;;15.60;99.90;;;;;;5004584;28;20278;-55
2022/10/18 06:08:39;;;;;;;430.50;218.93;;;15.70;99.90;;;;;;5009791;28;20209;-55
2022/10/18 06:11:06;;;;;;;466.60;230.23;;;15.60;99.90;;;;;;5007729;28;20210;-55
2022/10/18 06:13:32;;;;;;;449.57;218.57;;;15.70;99.90;;;;;;5006742;28;20224;-54
2022/10/18 06:15:58;;;;;;;561.27;282.40;;;;;;;;;;5009827;28;20518;-55
2022/10/18 06:18:24;;;;;;;492.93;248.97;;;15.80;99.90;;;;;;5009971;28;20224;-56
2022/10/18 06:20:55;;;;;;;474.40;241.63;;;15.70;99.90;;;;;;5001440;28;20212;-55
2022/10/18 06:23:21;;;;;;;382.47;196.63;;;15.70;99.90;;;;;;5006721;28;20207;-55
2022/10/18 06:25:46;;;;;;;356.00;180.70;;;15.70;99.90;;;;;;5008815;28;20361;-55
2022/10/18 06:28:12;;;;;;;507.80;257.20;;;15.80;99.90;;;;;;5003722;28;20603;-55
2022/10/18 06:30:38;;;;;;;532.07;265.07;;;15.70;99.90;;;;;;5003545;28;20204;-55
2022/10/18 06:33:03;;;;;;;546.00;276.63;;;15.90;99.90;;;;;;5007582;28;20659;-55
2022/10/18 06:35:28;;;;;;;461.00;226.90;;;15.80;99.90;;;;;;5002119;28;20204;-55
2022/10/18 06:37:54;;;;;;;487.27;242.37;;;16.00;99.90;;;;;;5007416;28;20185;-55
2022/10/18 06:40:20;;;;;;;509.83;250.97;;;15.60;99.90;;;;;;5009512;28;20212;-55
2022/10/18 06:42:46;;;;;;;499.07;256.17;;;15.70;99.90;;;;;;5015489;28;20308;-55
2022/10/18 06:45:13;;;;;;;383.27;197.27;;;15.80;99.90;;;;;;5012170;28;20220;-55
2022/10/18 06:47:38;;;;;;;454.30;225.70;;;15.90;99.90;;;;;;5012818;28;20220;-56
2022/10/18 06:50:04;;;;;;;508.00;251.80;;;;;;;;;;5016481;28;20267;-55
2022/10/18 06:52:30;;;;;;;414.37;199.73;;;15.90;99.90;;;;;;5019981;28;20304;-55
2022/10/18 06:54:55;;;;;;;535.67;278.80;;;15.80;99.90;;;;;;5007580;28;22814;-55
2022/10/18 06:57:21;;;;;;;497.97;250.83;;;15.80;99.90;;;;;;5005088;28;20274;-55
2022/10/18 06:59:47;;;;;;;484.57;247.03;;;;;;;;;;5002450;28;20558;-55
2022/10/18 07:02:16;;;;;;;549.40;283.27;;;15.80;99.90;;;;;;5012895;28;20184;-55
2022/10/18 07:04:42;;;;;;;397.70;199.33;;;;;;;;;;5013613;28;20184;-55
2022/10/18 07:07:07;;;;;;;415.83;206.30;;;15.80;99.90;;;;;;5007222;28;20220;-55
2022/10/18 07:09:33;;;;;;;503.17;255.57;;;16.00;99.90;;;;;;5000143;28;20251;-53
2022/10/18 07:11:58;;;;;;;550.23;277.63;;;15.90;99.90;;;;;;4996846;28;20212;-52
2022/10/18 07:14:24;;;;;;;491.77;251.33;;;;;;;;;;5013988;28;20279;-53
2022/10/18 07:16:50;;;;;;;515.03;262.60;;;;;;;;;;4994287;28;20219;-53
2022/10/18 07:19:16;;;;;;;392.70;197.63;;;16.20;99.90;;;;;;4999358;28;20220;-53
2022/10/18 07:21:41;;;;;;;393.57;198.47;;;16.20;99.90;;;;;;5009336;28;20220;-53
2022/10/18 07:24:07;;;;;;;484.90;235.43;;;16.30;99.90;;;;;;5000819;28;20212;-53
2022/10/18 07:26:34;;;;;;;561.97;287.27;;;16.20;99.90;;;;;;5008335;28;20318;-54
2022/10/18 07:29:06;;;;;;;486.00;247.10;;;16.20;99.90;;;;;;4997410;28;20212;-53
2022/10/18 07:31:32;;;;;;;470.70;243.07;;;16.20;99.90;;;;;;5003531;28;20603;-55
2022/10/18 07:33:58;;;;;;;487.37;260.90;;;16.10;99.90;;;;;;5004551;28;20222;-55
2022/10/18 07:36:24;;;;;;;426.97;218.50;;;16.20;99.90;;;;;;5006131;28;20219;-55
2022/10/18 07:38:53;;;;;;;439.13;223.93;;;16.10;99.90;;;;;;5004387;28;20212;-55
2022/10/18 07:41:19;;;;;;;354.10;182.43;;;16.00;99.90;;;;;;5009376;28;20262;-55
2022/10/18 07:43:47;;;;;;;457.50;218.80;;;16.10;99.90;;;;;;5013541;28;20606;-55
2022/10/18 07:46:14;;;;;;;469.00;253.87;;;16.10;99.90;;;;;;5009957;28;20940;-55
2022/10/18 07:48:40;;;;;;;523.03;263.03;;;;;;;;;;5018204;28;20207;-55
2022/10/18 07:51:06;;;;;;;466.37;235.10;;;16.10;99.90;;;;;;5006252;28;20219;-55
2022/10/18 07:53:33;;;;;;;467.30;231.20;;;16.10;99.90;;;;;;5010979;28;20243;-55
2022/10/18 07:56:00;;;;;;;500.97;253.73;;;16.10;99.90;;;;;;5012175;28;20200;-55
2022/10/18 07:58:26;;;;;;;517.47;253.10;;;;;;;;;;5007751;28;20845;-55
2022/10/18 08:00:52;;;;;;;376.83;186.07;;;;;;;;;;5009920;28;20229;-55
2022/10/18 08:03:18;;;;;;;384.77;185.60;;;;;;;;;;5034173;28;20211;-55
2022/10/18 08:05:51;;;;;;;508.23;245.27;;;16.10;99.90;;;;;;5006421;28;20235;-55
2022/10/18 08:08:17;;;;;;;504.93;257.70;;;16.10;99.90;;;;;;5019925;28;20195;-55
2022/10/18 08:10:42;;;;;;;466.67;235.60;;;16.10;99.90;;;;;;5012178;28;20180;-55
2022/10/18 08:13:08;;;;;;;462.57;229.73;;;16.10;99.90;;;;;;5014879;28;20223;-54
2022/10/18 08:15:33;;;;;;;399.77;203.83;;;16.00;99.90;;;;;;5011767;28;20235;-54
2022/10/18 08:17:59;;;;;;;370.37;181.87;;;16.00;99.90;;;;;;5016399;28;20751;-55
2022/10/18 08:20:24;;;;;;;461.77;235.30;;;16.10;99.90;;;;;;5016476;28;20565;-54
2022/10/18 08:22:50;;;;;;;524.43;263.30;;;16.00;99.90;;;;;;5017686;28;20179;-55
2022/10/18 08:25:16;;;;;;;418.60;206.30;;;16.00;99.90;;;;;;5019905;28;20306;-55
2022/10/18 08:27:41;;;;;;;514.37;258.23;;;16.10;99.90;;;;;;5014943;28;20540;-55
2022/10/18 08:30:08;;;;;;;459.33;227.30;;;16.00;99.90;;;;;;5018537;28;20212;-55
2022/10/18 08:32:34;;;;;;;449.07;219.73;;;;;;;;;;5024394;28;20311;-54
2022/10/18 08:35:00;;;;;;;434.40;222.40;;;;;;;;;;5020711;28;20278;-55
2022/10/18 08:37:26;;;;;;;322.77;163.77;;;16.10;99.90;;;;;;5011239;28;20205;-54
2022/10/18 08:39:51;;;;;;;461.17;232.50;;;;;;;;;;5016042;28;20212;-55
2022/10/18 08:42:38;;;;;;;503.27;254.43;;;16.00;99.90;;;;;;5000988;28;20219;-55
2022/10/18 08:45:05;;;;;;;532.23;267.20;;;15.90;99.90;;;;;;5009002;28;20299;-54
2022/10/18 08:47:36;;;;;;;511.40;252.57;;;15.80;99.90;;;;;;5017566;28;20180;-55
2022/10/18 08:50:10;;;;;;;488.50;237.90;;;16.00;99.90;;;;;;5018180;28;20636;-55
2022/10/18 08:52:55;;;;;;;460.87;226.83;;;16.10;99.90;;;;;;5018144;28;20216;-55
2022/10/18 08:55:27;;;;;;;486.87;237.50;;;15.70;99.90;;;;;;5024416;28;20251;-55
2022/10/18 08:57:53;;;;;;;498.77;242.23;;;15.80;99.90;;;;;;5027674;28;20216;-55
2022/10/18 09:00:21;;;;;;;535.60;268.17;;;15.90;99.90;;;;;;5035887;23;20314;-55
2022/10/18 09:03:03;;;;;;;443.87;214.80;;;16.10;99.90;;;;;;5035387;28;20696;-55
2022/10/18 09:05:52;;;;;;;501.83;247.63;;;15.90;99.90;;;;;;5024926;28;20207;-55
2022/10/18 09:09:07;;;;;;;474.60;236.30;;;16.00;99.90;;;;;;5037089;28;20406;-55
2022/10/18 09:11:42;;;;;;;478.20;235.07;;;15.90;99.90;;;;;;5014562;28;20806;-55
2022/10/18 09:14:31;;;;;;;502.27;247.20;;;16.20;99.90;;;;;;5029548;28;20179;-55
2022/10/18 09:17:38;;;;;;;449.73;224.73;;;16.10;99.90;;;;;;5030521;28;20223;-55
2022/10/18 09:20:23;;;;;;;521.23;260.57;;;16.20;99.90;;;;;;5032652;28;20378;-55
2022/10/18 09:22:53;;;;;;;462.23;225.10;;;16.20;99.90;;;;;;5029073;28;20211;-55
2022/10/18 09:25:23;;;;;;;450.93;232.63;;;16.20;99.90;;;;;;5025950;28;20294;-54
2022/10/18 09:28:05;;;;;;;435.87;222.33;;;16.30;99.90;;;;;;5029801;28;20555;-54
2022/10/18 09:30:53;;;;;;;409.07;213.97;;;16.40;99.90;;;;;;5030782;28;20215;-54
2022/10/18 09:33:26;;;;;;;367.27;188.63;;;16.40;99.90;;;;;;5027030;28;20207;-54
2022/10/18 09:36:01;;;;;;;466.27;233.40;;;16.30;99.90;;;;;;5032309;28;20223;-54
2022/10/18 09:38:36;;;;;;;495.10;240.80;;;16.30;99.90;;;;;;5022778;28;20179;-54
2022/10/18 09:41:27;;;;;;;526.63;262.63;;;16.50;99.90;;;;;;5023059;28;20223;-54
2022/10/18 09:43:54;;;;;;;474.23;243.10;;;16.70;99.90;;;;;;5026280;28;20211;-54
2022/10/18 09:46:24;;;;;;;520.10;256.57;;;16.20;99.90;;;;;;5022737;28;20215;-54
2022/10/18 09:48:57;;;;;;;519.70;262.87;;;16.30;99.90;;;;;;5021268;28;20230;-54
2022/10/18 09:51:28;;;;;;;515.07;260.17;;;16.60;99.90;;;;;;5029883;28;20211;-54
2022/10/18 09:54:20;;;;;;;470.43;226.13;;;16.60;99.90;;;;;;5043334;28;20234;-54
2022/10/18 09:57:01;;;;;;;494.37;247.67;;;16.80;99.90;;;;;;5026224;28;20215;-54
2022/10/18 09:59:36;;;;;;;489.80;246.47;;;16.50;99.90;;;;;;5029024;28;20723;-55
2022/10/18 10:02:02;;;;;;;440.53;211.93;;;;;;;;;;5028352;28;20240;-54
2022/10/18 10:04:28;;;;;;;494.43;243.83;;;;;;;;;;5018920;28;20241;-55
2022/10/18 10:06:56;;;;;;;483.73;252.17;;;16.40;99.90;;;;;;5021008;28;20306;-54
2022/10/18 10:09:49;;;;;;;427.53;226.63;;;16.40;99.90;;;;;;5024862;28;20216;-54
2022/10/18 10:12:32;;;;;;;428.60;216.37;;;16.40;99.90;;;;;;5004929;28;20705;-54
2022/10/18 10:15:18;;;;;;;451.83;223.83;;;16.50;99.90;;;;;;5024434;28;20386;-54
2022/10/18 10:17:56;;;;;;;450.23;217.97;;;16.90;99.90;;;;;;5031150;28;20219;-54
2022/10/18 10:20:30;;;;;;;568.50;281.37;;;16.40;99.90;;;;;;5026737;28;20616;-54
2022/10/18 10:23:17;;;;;;;445.40;219.20;;;16.40;99.90;;;;;;5035491;28;20278;-54
2022/10/18 10:25:43;;;;;;;431.13;215.97;;;;;;;;;;5036678;28;20702;-54
2022/10/18 10:28:17;;;;;;;451.20;232.77;;;16.50;99.90;;;;;;5033659;28;20230;-54
2022/10/18 10:30:42;;;;;;;382.47;192.57;;;16.60;99.90;;;;;;5030838;28;20215;-54
2022/10/18 10:33:32;;;;;;;435.37;220.17;;;16.50;99.90;;;;;;5037351;28;22041;-54
2022/10/18 10:35:59;;;;;;;510.60;257.10;;;16.50;99.90;;;;;;5025646;28;20227;-54
2022/10/18 10:38:27;;;;;;;462.10;234.60;;;16.40;99.90;;;;;;5030011;28;20300;-54
2022/10/18 10:40:53;;;;;;;518.10;264.50;;;16.50;99.90;;;;;;5027310;28;20172;-54
2022/10/18 10:43:28;;;;;;;470.37;238.03;;;16.60;99.90;;;;;;5027543;28;20223;-54
2022/10/18 10:45:58;;;;;;;391.33;195.10;;;16.50;99.90;;;;;;5027918;28;20238;-54
2022/10/18 10:48:25;;;;;;;340.30;171.73;;;16.40;99.90;;;;;;5029982;28;20248;-54
2022/10/18 10:50:51;;;;;;;496.07;246.43;;;;;;;;;;5031125;28;20215;-54
2022/10/18 10:53:28;;;;;;;446.23;224.27;;;16.50;99.90;;;;;;5027808;28;20651;-54
2022/10/18 10:55:56;;;;;;;486.87;242.77;;;17.20;99.90;;;;;;5031993;28;20203;-54
2022/10/18 10:58:22;;;;;;;459.67;231.00;;;;;;;;;;5029664;28;20629;-54
2022/10/18 11:00:48;;;;;;;516.70;261.70;;;16.40;99.90;;;;;;5027414;28;20220;-54
2022/10/18 11:03:22;;;;;;;440.73;219.47;;;16.30;99.90;;;;;;5033578;28;20220;-54
2022/10/18 11:05:54;;;;;;;416.93;203.03;;;17.70;99.90;;;;;;5033248;28;20620;-54
2022/10/18 11:08:26;;;;;;;385.80;201.83;;;16.40;99.90;;;;;;5029069;28;20217;-54
2022/10/18 11:11:21;;;;;;;456.00;217.80;;;16.30;99.90;;;;;;5038342;28;20182;-56
2022/10/18 11:14:04;;;;;;;533.23;259.57;;;16.20;99.90;;;;;;5032570;28;20243;-56
2022/10/18 11:16:54;;;;;;;501.30;242.03;;;16.20;99.90;;;;;;5033395;28;20733;-55
2022/10/18 11:20:11;;;;;;;459.53;223.77;;;16.10;99.90;;;;;;5034533;28;20835;-55
2022/10/18 11:22:48;;;;;;;450.87;215.77;;;16.10;99.90;;;;;;5004936;28;20224;-55
2022/10/18 11:25:15;;;;;;;440.73;215.33;;;16.10;99.90;;;;;;5034886;28;20207;-55
2022/10/18 11:28:02;;;;;;;436.93;219.27;;;16.10;99.90;;;;;;5039271;28;20368;-55
2022/10/18 11:30:41;;;;;;;402.77;204.77;;;16.10;99.90;;;;;;5036937;28;20282;-56
2022/10/18 11:33:30;;;;;;;492.13;240.70;;;16.00;99.90;;;;;;5031746;28;20261;-55
2022/10/18 11:36:06;;;;;;;517.90;251.50;;;16.00;99.90;;;;;;5040697;28;20215;-56
2022/10/18 11:39:02;;;;;;;450.80;223.97;;;16.10;99.90;;;;;;5034939;28;20222;-55
2022/10/18 11:41:36;;;;;;;438.27;213.30;;;16.00;99.90;;;;;;5048145;28;20330;-55
2022/10/18 11:44:08;;;;;;;465.30;227.20;;;15.90;99.90;;;;;;5041018;28;20180;-56
2022/10/18 11:46:34;;;;;;;455.80;220.50;;;;;;;;;;5033706;28;20219;-56
2022/10/18 11:49:24;;;;;;;392.53;194.20;;;16.00;99.90;;;;;;5036908;28;20199;-55
2022/10/18 11:52:08;;;;;;;528.07;257.63;;;16.20;99.90;;;;;;5034995;28;20546;-56
2022/10/18 11:55:11;;;;;;;525.37;258.27;;;15.80;99.90;;;;;;5035339;28;20230;-55
2022/10/18 11:57:58;;;;;;;503.73;236.43;;;15.90;99.90;;;;;;5041029;28;20262;-55
2022/10/18 12:00:40;;;;;;;405.70;187.50;;;15.80;99.90;;;;;;5039449;28;20588;-55
2022/10/18 12:03:20;;;;;;;459.40;219.80;;;15.70;99.90;;;;;;5036316;28;20273;-55
2022/10/18 12:05:48;;;;;;;451.77;207.60;;;15.80;99.90;;;;;;5042931;28;20292;-55
2022/10/18 12:08:15;;;;;;;413.20;194.67;;;15.70;99.90;;;;;;5038917;28;20274;-55
2022/10/18 12:10:46;;;;;;;497.60;231.83;;;15.70;99.90;;;;;;5044161;28;20176;-55
2022/10/18 12:13:17;;;;;;;479.77;225.07;;;15.70;99.90;;;;;;5045751;28;20302;-55
2022/10/18 12:15:44;;;;;;;445.90;208.70;;;15.80;99.90;;;;;;5050593;28;20242;-55
2022/10/18 12:18:15;;;;;;;525.07;242.30;;;15.80;99.90;;;;;;5037560;28;20211;-55
2022/10/18 12:20:45;;;;;;;414.13;194.57;;;15.70;99.90;;;;;;5041867;28;20207;-55
2022/10/18 12:23:13;;;;;;;324.10;159.83;;;15.80;99.90;;;;;;5043143;28;20179;-55
2022/10/18 12:25:42;;;;;;;357.10;175.77;;;15.80;99.90;;;;;;5041059;28;20251;-55
2022/10/18 12:28:08;;;;;;;439.63;209.13;;;;;;;;;;5040721;28;20203;-55
2022/10/18 12:30:45;;;;;;;465.40;222.47;;;15.90;99.90;;;;;;5033439;28;20657;-55
2022/10/18 12:33:26;;;;;;;481.63;227.73;;;15.90;99.90;;;;;;5038781;28;20223;-55